PIA300 OPKC-OPIS
Flight info
| Callsign | PIA300 |
|---|---|
| Flight time | 1h 25m |
| Altitude | 37000 |
| Route | BADUL1D/25L BADUL J112 NH Z301 BELKO BELKO1C |
| Aircraft | B77W/H-SDE1E2E3FGHIJ2J3J4J5M1RWXY/LB1D1 |
Departure
| Time | 2026-04-25 16:57 |
|---|---|
| Airport | Jinnah International Airport (OPKC) |
Arrival
| Time | 2026-04-25 18:22 |
|---|---|
| Airport | Islamabad International Airport (OPIS) |
| Time | Latitude | Longitude | Altitude | Speed | Heading |
|---|---|---|---|---|---|
| 2026-04-25 16:38 | 24.90251 | 67.16650 | 106 ft | 0 kts | 204° |
| 2026-04-25 16:44 | 24.90257 | 67.16653 | 105 ft | 4 kts | 204° |
| 2026-04-25 16:44 | 24.90282 | 67.16665 | 105 ft | 4 kts | 204° |
| 2026-04-25 16:45 | 24.90307 | 67.16677 | 105 ft | 4 kts | 203° |
| 2026-04-25 16:45 | 24.90322 | 67.16684 | 105 ft | 1 kts | 203° |
| 2026-04-25 16:45 | 24.90316 | 67.16695 | 103 ft | 4 kts | 120° |
| 2026-04-25 16:45 | 24.90311 | 67.16723 | 105 ft | 4 kts | 97° |
| 2026-04-25 16:46 | 24.90306 | 67.16734 | 106 ft | 2 kts | 164° |
| 2026-04-25 16:46 | 24.90288 | 67.16739 | 105 ft | 0 kts | 345° |
| 2026-04-25 16:48 | 24.90309 | 67.16733 | 106 ft | 10 kts | 345° |
| 2026-04-25 16:49 | 24.90422 | 67.16702 | 106 ft | 24 kts | 1° |
| 2026-04-25 16:49 | 24.90531 | 67.16887 | 107 ft | 39 kts | 77° |
| 2026-04-25 16:49 | 24.90581 | 67.17110 | 107 ft | 30 kts | 74° |
| 2026-04-25 16:49 | 24.90607 | 67.17207 | 107 ft | 8 kts | 72° |
| 2026-04-25 16:50 | 24.90618 | 67.17249 | 107 ft | 9 kts | 74° |
| 2026-04-25 16:50 | 24.90641 | 67.17336 | 107 ft | 6 kts | 73° |
| 2026-04-25 16:50 | 24.90641 | 67.17337 | 107 ft | 0 kts | 73° |
| 2026-04-25 16:51 | 24.90642 | 67.17342 | 107 ft | 6 kts | 73° |
| 2026-04-25 16:51 | 24.90683 | 67.17417 | 107 ft | 0 kts | 41° |
| 2026-04-25 16:52 | 24.90691 | 67.17424 | 107 ft | 8 kts | 37° |
| 2026-04-25 16:53 | 24.90737 | 67.17457 | 108 ft | 0 kts | 31° |
| 2026-04-25 16:54 | 24.90742 | 67.17460 | 108 ft | 5 kts | 31° |
| 2026-04-25 16:54 | 24.90822 | 67.17488 | 108 ft | 10 kts | 1° |
| 2026-04-25 16:54 | 24.90857 | 67.17474 | 108 ft | 4 kts | 305° |
| 2026-04-25 16:55 | 24.90859 | 67.17442 | 108 ft | 4 kts | 269° |
| 2026-04-25 16:55 | 24.90858 | 67.17434 | 108 ft | 0 kts | 265° |
| 2026-04-25 16:55 | 24.90858 | 67.17433 | 108 ft | 0 kts | 263° |
| 2026-04-25 16:56 | 24.90857 | 67.17423 | 109 ft | 10 kts | 261° |
| 2026-04-25 16:57 | 24.90771 | 67.17066 | 110 ft | 105 kts | 254° |
| 2026-04-25 16:57 | 24.90695 | 67.16765 | 111 ft | 145 kts | 254° |
| 2026-04-25 16:57 | 24.90129 | 67.14383 | 1984 ft | 189 kts | 259° |
| 2026-04-25 16:57 | 24.89950 | 67.13005 | 3005 ft | 184 kts | 257° |
| 2026-04-25 16:58 | 24.89545 | 67.11565 | 3198 ft | 208 kts | 259° |
| 2026-04-25 16:58 | 24.89702 | 67.09941 | 3382 ft | 228 kts | 301° |
| 2026-04-25 16:58 | 24.90889 | 67.08750 | 3773 ft | 250 kts | 336° |
| 2026-04-25 16:58 | 24.92444 | 67.08538 | 4173 ft | 268 kts | 9° |
| 2026-04-25 16:59 | 24.94121 | 67.09478 | 4875 ft | 280 kts | 44° |
| 2026-04-25 16:59 | 24.95136 | 67.11305 | 5679 ft | 283 kts | 67° |
| 2026-04-25 16:59 | 24.96019 | 67.13251 | 6368 ft | 288 kts | 57° |
| 2026-04-25 16:59 | 24.97149 | 67.15084 | 7223 ft | 289 kts | 53° |
| 2026-04-25 17:00 | 24.98326 | 67.16884 | 8086 ft | 291 kts | 53° |
| 2026-04-25 17:00 | 24.99520 | 67.18708 | 8892 ft | 296 kts | 53° |
| 2026-04-25 17:00 | 25.00728 | 67.20574 | 9734 ft | 300 kts | 54° |
| 2026-04-25 17:00 | 25.01941 | 67.22464 | 10432 ft | 308 kts | 54° |
| 2026-04-25 17:01 | 25.03230 | 67.24484 | 10686 ft | 336 kts | 54° |
| 2026-04-25 17:01 | 25.04625 | 67.26677 | 10893 ft | 363 kts | 54° |
| 2026-04-25 17:01 | 25.06106 | 67.29020 | 11417 ft | 377 kts | 54° |
| 2026-04-25 17:01 | 25.07616 | 67.31412 | 12282 ft | 383 kts | 54° |
| 2026-04-25 17:02 | 25.09159 | 67.33845 | 13186 ft | 390 kts | 54° |
| 2026-04-25 17:02 | 25.10200 | 67.35467 | 13772 ft | 393 kts | 52° |
| 2026-04-25 17:02 | 25.12762 | 67.38304 | 14594 ft | 392 kts | 38° |
| 2026-04-25 17:02 | 25.13461 | 67.38904 | 14764 ft | 392 kts | 37° |
| 2026-04-25 17:03 | 25.17100 | 67.42069 | 14848 ft | 395 kts | 39° |
| 2026-04-25 17:03 | 25.18487 | 67.43355 | 14887 ft | 396 kts | 40° |
| 2026-04-25 17:03 | 25.21291 | 67.46057 | 15874 ft | 401 kts | 41° |
| 2026-04-25 17:03 | 25.22679 | 67.47403 | 16629 ft | 398 kts | 41° |
| 2026-04-25 17:04 | 25.25416 | 67.50067 | 18140 ft | 395 kts | 41° |
| 2026-04-25 17:04 | 25.27544 | 67.52050 | 18701 ft | 408 kts | 39° |
| 2026-04-25 17:04 | 25.29060 | 67.53377 | 18881 ft | 420 kts | 38° |
| 2026-04-25 17:04 | 25.32175 | 67.56061 | 19571 ft | 433 kts | 38° |
| 2026-04-25 17:05 | 25.33778 | 67.57456 | 20021 ft | 436 kts | 38° |
| 2026-04-25 17:05 | 25.38558 | 67.61709 | 21396 ft | 446 kts | 39° |
| 2026-04-25 17:05 | 25.40967 | 67.63895 | 22015 ft | 452 kts | 39° |
| 2026-04-25 17:06 | 25.43413 | 67.66129 | 22634 ft | 458 kts | 39° |
| 2026-04-25 17:06 | 25.45873 | 67.68385 | 23274 ft | 462 kts | 40° |
| 2026-04-25 17:06 | 25.48361 | 67.70669 | 23819 ft | 467 kts | 40° |
| 2026-04-25 17:06 | 25.50862 | 67.72967 | 24413 ft | 469 kts | 39° |
| 2026-04-25 17:07 | 25.53368 | 67.75269 | 24841 ft | 468 kts | 39° |
| 2026-04-25 17:07 | 25.55892 | 67.77588 | 24831 ft | 474 kts | 39° |
| 2026-04-25 17:07 | 25.58429 | 67.79920 | 24846 ft | 474 kts | 39° |
| 2026-04-25 17:07 | 25.60974 | 67.82260 | 25384 ft | 475 kts | 39° |
| 2026-04-25 17:08 | 25.63494 | 67.84579 | 26322 ft | 468 kts | 39° |
| 2026-04-25 17:08 | 25.65977 | 67.86867 | 27328 ft | 461 kts | 39° |
| 2026-04-25 17:08 | 25.68427 | 67.89126 | 28253 ft | 456 kts | 39° |
| 2026-04-25 17:08 | 25.70861 | 67.91372 | 29075 ft | 454 kts | 39° |
| 2026-04-25 17:09 | 25.73286 | 67.93610 | 29822 ft | 453 kts | 39° |
| 2026-04-25 17:09 | 25.75705 | 67.95843 | 30432 ft | 452 kts | 39° |
| 2026-04-25 17:09 | 25.78119 | 67.98071 | 31053 ft | 450 kts | 39° |
| 2026-04-25 17:09 | 25.80519 | 68.00286 | 31717 ft | 447 kts | 39° |
| 2026-04-25 17:10 | 25.82894 | 68.02481 | 32381 ft | 444 kts | 39° |
| 2026-04-25 17:10 | 25.85271 | 68.04679 | 33083 ft | 440 kts | 39° |
| 2026-04-25 17:10 | 25.87602 | 68.06837 | 33876 ft | 432 kts | 39° |
| 2026-04-25 17:10 | 25.89864 | 68.08932 | 34466 ft | 430 kts | 39° |
| 2026-04-25 17:11 | 25.92193 | 68.11084 | 34548 ft | 441 kts | 39° |
| 2026-04-25 17:11 | 25.94606 | 68.13313 | 34632 ft | 451 kts | 39° |
| 2026-04-25 17:11 | 25.99531 | 68.17873 | 34784 ft | 470 kts | 39° |
| 2026-04-25 17:12 | 26.04596 | 68.22575 | 35005 ft | 483 kts | 39° |
| 2026-04-25 17:12 | 26.07218 | 68.25012 | 35250 ft | 486 kts | 38° |
| 2026-04-25 17:12 | 26.09821 | 68.27433 | 35472 ft | 489 kts | 38° |
| 2026-04-25 17:13 | 26.12424 | 68.29855 | 35802 ft | 489 kts | 38° |
| 2026-04-25 17:13 | 26.14153 | 68.31466 | 36053 ft | 488 kts | 38° |
| 2026-04-25 17:13 | 26.17631 | 68.34705 | 36520 ft | 487 kts | 38° |
| 2026-04-25 17:13 | 26.20252 | 68.37115 | 36711 ft | 490 kts | 36° |
| 2026-04-25 17:14 | 26.25969 | 68.41189 | 36787 ft | 494 kts | 26° |
| 2026-04-25 17:14 | 26.32121 | 68.44769 | 36787 ft | 502 kts | 26° |
| 2026-04-25 17:15 | 26.38350 | 68.48414 | 36787 ft | 507 kts | 26° |
| 2026-04-25 17:15 | 26.44583 | 68.52126 | 36784 ft | 510 kts | 26° |
| 2026-04-25 17:16 | 26.50856 | 68.55883 | 36790 ft | 511 kts | 26° |
| 2026-04-25 17:16 | 26.57126 | 68.59639 | 36780 ft | 511 kts | 26° |
| 2026-04-25 17:17 | 26.63383 | 68.63387 | 36779 ft | 510 kts | 26° |
| 2026-04-25 17:17 | 26.69621 | 68.67112 | 36782 ft | 508 kts | 26° |
| 2026-04-25 17:18 | 26.75853 | 68.70825 | 36784 ft | 506 kts | 26° |
| 2026-04-25 17:18 | 26.82060 | 68.74530 | 36786 ft | 505 kts | 26° |
| 2026-04-25 17:19 | 26.88261 | 68.78239 | 36783 ft | 505 kts | 26° |
| 2026-04-25 17:19 | 26.94459 | 68.81951 | 36785 ft | 505 kts | 26° |
| 2026-04-25 17:20 | 27.00647 | 68.85663 | 36787 ft | 505 kts | 26° |
| 2026-04-25 17:20 | 27.06850 | 68.89388 | 36793 ft | 506 kts | 26° |
| 2026-04-25 17:21 | 27.13061 | 68.93122 | 36789 ft | 507 kts | 26° |
| 2026-04-25 17:21 | 27.19289 | 68.96872 | 36788 ft | 508 kts | 26° |
| 2026-04-25 17:22 | 27.24475 | 68.99998 | 36787 ft | 509 kts | 26° |
| 2026-04-25 17:22 | 27.31724 | 69.04374 | 36789 ft | 509 kts | 26° |
| 2026-04-25 17:23 | 27.37969 | 69.08148 | 36793 ft | 510 kts | 26° |
| 2026-04-25 17:23 | 27.44230 | 69.11935 | 36785 ft | 512 kts | 26° |
| 2026-04-25 17:24 | 27.50551 | 69.15755 | 36786 ft | 512 kts | 26° |
| 2026-04-25 17:24 | 27.56829 | 69.19555 | 36791 ft | 512 kts | 26° |
| 2026-04-25 17:25 | 27.63065 | 69.23336 | 36773 ft | 512 kts | 26° |
| 2026-04-25 17:25 | 27.69335 | 69.27144 | 36788 ft | 512 kts | 26° |
| 2026-04-25 17:26 | 27.75606 | 69.30958 | 36784 ft | 512 kts | 26° |
| 2026-04-25 17:26 | 27.81870 | 69.34772 | 36787 ft | 512 kts | 26° |
| 2026-04-25 17:27 | 27.88135 | 69.38591 | 36785 ft | 512 kts | 26° |
| 2026-04-25 17:27 | 27.92329 | 69.41151 | 36787 ft | 512 kts | 26° |
| 2026-04-25 17:28 | 28.00672 | 69.46249 | 36790 ft | 512 kts | 26° |
| 2026-04-25 17:28 | 28.06938 | 69.50085 | 36789 ft | 512 kts | 26° |
| 2026-04-25 17:29 | 28.13206 | 69.53927 | 36789 ft | 512 kts | 25° |
| 2026-04-25 17:29 | 28.19476 | 69.57775 | 36788 ft | 512 kts | 26° |
| 2026-04-25 17:30 | 28.25736 | 69.61622 | 36802 ft | 512 kts | 25° |
| 2026-04-25 17:30 | 28.32007 | 69.65482 | 36795 ft | 512 kts | 25° |
| 2026-04-25 17:31 | 28.38265 | 69.69339 | 36787 ft | 512 kts | 25° |
| 2026-04-25 17:31 | 28.44526 | 69.73203 | 36789 ft | 512 kts | 25° |
| 2026-04-25 17:32 | 28.50775 | 69.77065 | 36796 ft | 511 kts | 25° |
| 2026-04-25 17:32 | 28.57032 | 69.80914 | 36807 ft | 511 kts | 25° |
| 2026-04-25 17:33 | 28.63322 | 69.84691 | 36804 ft | 511 kts | 24° |
| 2026-04-25 17:33 | 28.69605 | 69.88452 | 36803 ft | 510 kts | 24° |
| 2026-04-25 17:34 | 28.75876 | 69.92225 | 36802 ft | 509 kts | 24° |
| 2026-04-25 17:34 | 28.82137 | 69.96005 | 36800 ft | 509 kts | 24° |
| 2026-04-25 17:35 | 28.88382 | 69.99784 | 36812 ft | 509 kts | 24° |
| 2026-04-25 17:35 | 28.94642 | 70.03575 | 36805 ft | 509 kts | 24° |
| 2026-04-25 17:36 | 29.00858 | 70.07344 | 36809 ft | 510 kts | 24° |
| 2026-04-25 17:36 | 29.07126 | 70.11148 | 36806 ft | 510 kts | 24° |
| 2026-04-25 17:37 | 29.13412 | 70.14925 | 36803 ft | 510 kts | 24° |
| 2026-04-25 17:37 | 29.19736 | 70.18713 | 36815 ft | 510 kts | 23° |
| 2026-04-25 17:38 | 29.23902 | 70.21231 | 36799 ft | 510 kts | 24° |
| 2026-04-25 17:38 | 29.32261 | 70.26346 | 36793 ft | 509 kts | 24° |
| 2026-04-25 17:39 | 29.38498 | 70.30161 | 36803 ft | 507 kts | 24° |
| 2026-04-25 17:39 | 29.44738 | 70.33944 | 36792 ft | 507 kts | 23° |
| 2026-04-25 17:40 | 29.50966 | 70.37727 | 36799 ft | 505 kts | 23° |
| 2026-04-25 17:40 | 29.57118 | 70.41477 | 36797 ft | 503 kts | 23° |
| 2026-04-25 17:41 | 29.63289 | 70.45246 | 36798 ft | 501 kts | 23° |
| 2026-04-25 17:41 | 29.69475 | 70.49029 | 36794 ft | 500 kts | 23° |
| 2026-04-25 17:42 | 29.75607 | 70.52785 | 36800 ft | 499 kts | 23° |
| 2026-04-25 17:42 | 29.81742 | 70.56546 | 36802 ft | 500 kts | 23° |
| 2026-04-25 17:43 | 29.87895 | 70.60324 | 36802 ft | 502 kts | 23° |
| 2026-04-25 17:43 | 29.94022 | 70.64093 | 36798 ft | 503 kts | 23° |
| 2026-04-25 17:44 | 30.00200 | 70.67898 | 36806 ft | 504 kts | 23° |
| 2026-04-25 17:44 | 30.06420 | 70.71735 | 36806 ft | 504 kts | 23° |
| 2026-04-25 17:45 | 30.10515 | 70.74264 | 36813 ft | 504 kts | 23° |
| 2026-04-25 17:45 | 30.18750 | 70.79357 | 36807 ft | 504 kts | 23° |
| 2026-04-25 17:46 | 30.24927 | 70.83184 | 36807 ft | 503 kts | 23° |
| 2026-04-25 17:46 | 30.31088 | 70.87005 | 36811 ft | 502 kts | 23° |
| 2026-04-25 17:47 | 30.37245 | 70.90830 | 36826 ft | 502 kts | 23° |
| 2026-04-25 17:47 | 30.43406 | 70.94663 | 36809 ft | 503 kts | 23° |
| 2026-04-25 17:48 | 30.51654 | 70.99802 | 36809 ft | 503 kts | 23° |
| 2026-04-25 17:49 | 30.57780 | 71.03626 | 36811 ft | 503 kts | 23° |
| 2026-04-25 17:49 | 30.63948 | 71.07482 | 36811 ft | 504 kts | 23° |
| 2026-04-25 17:50 | 30.70123 | 71.11348 | 36812 ft | 506 kts | 23° |
| 2026-04-25 17:50 | 30.76333 | 71.15240 | 36821 ft | 508 kts | 23° |
| 2026-04-25 17:51 | 30.82564 | 71.19153 | 36821 ft | 510 kts | 23° |
| 2026-04-25 17:51 | 30.88813 | 71.23082 | 36817 ft | 511 kts | 23° |
| 2026-04-25 17:52 | 30.95071 | 71.27025 | 36814 ft | 511 kts | 23° |
| 2026-04-25 17:52 | 31.01331 | 71.30973 | 36818 ft | 512 kts | 24° |
| 2026-04-25 17:53 | 31.07604 | 71.34936 | 36825 ft | 513 kts | 24° |
| 2026-04-25 17:53 | 31.13881 | 71.38907 | 36821 ft | 514 kts | 24° |
| 2026-04-25 17:54 | 31.20167 | 71.42890 | 36823 ft | 514 kts | 24° |
| 2026-04-25 17:54 | 31.26445 | 71.46874 | 36838 ft | 514 kts | 24° |
| 2026-04-25 17:55 | 31.32724 | 71.50865 | 36821 ft | 513 kts | 24° |
| 2026-04-25 17:55 | 31.38990 | 71.54853 | 36818 ft | 513 kts | 24° |
| 2026-04-25 17:56 | 31.45246 | 71.58843 | 36819 ft | 512 kts | 24° |
| 2026-04-25 17:56 | 31.51470 | 71.62821 | 36820 ft | 512 kts | 24° |
| 2026-04-25 17:57 | 31.57718 | 71.66821 | 36827 ft | 511 kts | 23° |
| 2026-04-25 17:57 | 31.63942 | 71.70818 | 36822 ft | 509 kts | 23° |
| 2026-04-25 17:58 | 31.70137 | 71.74793 | 36821 ft | 507 kts | 23° |
| 2026-04-25 17:58 | 31.76320 | 71.78756 | 36826 ft | 505 kts | 23° |
| 2026-04-25 17:59 | 31.82486 | 71.82718 | 36828 ft | 505 kts | 23° |
| 2026-04-25 17:59 | 31.88643 | 71.86685 | 36832 ft | 504 kts | 22° |
| 2026-04-25 18:00 | 31.94786 | 71.90649 | 36834 ft | 504 kts | 22° |
| 2026-04-25 18:00 | 32.00918 | 71.94612 | 36839 ft | 502 kts | 22° |
| 2026-04-25 18:01 | 32.07027 | 71.98572 | 36850 ft | 500 kts | 22° |
| 2026-04-25 18:01 | 32.13118 | 72.02528 | 36859 ft | 499 kts | 22° |
| 2026-04-25 18:02 | 32.19181 | 72.06469 | 36843 ft | 492 kts | 22° |
| 2026-04-25 18:02 | 32.22161 | 72.08413 | 36158 ft | 492 kts | 22° |
| 2026-04-25 18:02 | 32.25171 | 72.10368 | 35170 ft | 496 kts | 22° |
| 2026-04-25 18:02 | 32.28207 | 72.12336 | 34292 ft | 496 kts | 22° |
| 2026-04-25 18:03 | 32.31233 | 72.14300 | 33380 ft | 497 kts | 22° |
| 2026-04-25 18:03 | 32.34265 | 72.16274 | 32420 ft | 498 kts | 22° |
| 2026-04-25 18:03 | 32.37267 | 72.18238 | 31486 ft | 483 kts | 22° |
| 2026-04-25 18:03 | 32.40144 | 72.20130 | 30535 ft | 464 kts | 21° |
| 2026-04-25 18:04 | 32.42912 | 72.21952 | 29630 ft | 447 kts | 21° |
| 2026-04-25 18:04 | 32.45583 | 72.23704 | 28599 ft | 431 kts | 21° |
| 2026-04-25 18:04 | 32.48166 | 72.25395 | 27591 ft | 418 kts | 21° |
| 2026-04-25 18:04 | 32.50674 | 72.27034 | 26658 ft | 405 kts | 21° |
| 2026-04-25 18:05 | 32.53113 | 72.28627 | 25745 ft | 394 kts | 21° |
| 2026-04-25 18:05 | 32.55453 | 72.30157 | 24888 ft | 386 kts | 22° |
| 2026-04-25 18:05 | 32.57803 | 72.31690 | 24071 ft | 390 kts | 22° |
| 2026-04-25 18:05 | 32.60218 | 72.33258 | 23257 ft | 402 kts | 23° |
| 2026-04-25 18:06 | 32.62694 | 72.34871 | 22308 ft | 410 kts | 23° |
| 2026-04-25 18:06 | 32.65219 | 72.36525 | 21403 ft | 418 kts | 24° |
| 2026-04-25 18:06 | 32.67774 | 72.38205 | 20516 ft | 423 kts | 25° |
| 2026-04-25 18:06 | 32.70364 | 72.39911 | 19680 ft | 428 kts | 25° |
| 2026-04-25 18:07 | 32.72972 | 72.41631 | 18879 ft | 431 kts | 25° |
| 2026-04-25 18:07 | 32.75603 | 72.43368 | 18126 ft | 433 kts | 26° |
| 2026-04-25 18:07 | 32.78236 | 72.45107 | 17251 ft | 434 kts | 26° |
| 2026-04-25 18:07 | 32.80878 | 72.46854 | 16418 ft | 434 kts | 26° |
| 2026-04-25 18:08 | 32.83495 | 72.48585 | 15586 ft | 418 kts | 26° |
| 2026-04-25 18:08 | 32.85947 | 72.50215 | 14779 ft | 392 kts | 25° |
| 2026-04-25 18:08 | 32.88235 | 72.51838 | 14002 ft | 374 kts | 31° |
| 2026-04-25 18:08 | 32.90224 | 72.53732 | 13188 ft | 361 kts | 39° |
| 2026-04-25 18:09 | 32.91461 | 72.55163 | 12587 ft | 353 kts | 41° |
| 2026-04-25 18:09 | 32.93235 | 72.57261 | 11661 ft | 371 kts | 41° |
| 2026-04-25 18:09 | 32.95087 | 72.59457 | 11217 ft | 378 kts | 41° |
| 2026-04-25 18:09 | 32.95709 | 72.60201 | 11107 ft | 379 kts | 42° |
| 2026-04-25 18:10 | 32.98791 | 72.63938 | 10676 ft | 379 kts | 42° |
| 2026-04-25 18:10 | 33.00625 | 72.66185 | 10466 ft | 378 kts | 42° |
| 2026-04-25 18:10 | 33.02452 | 72.68431 | 10246 ft | 376 kts | 42° |
| 2026-04-25 18:10 | 33.04269 | 72.70669 | 10043 ft | 375 kts | 42° |
| 2026-04-25 18:11 | 33.06078 | 72.72901 | 9877 ft | 372 kts | 42° |
| 2026-04-25 18:11 | 33.07858 | 72.75101 | 9841 ft | 366 kts | 42° |
| 2026-04-25 18:11 | 33.09611 | 72.77268 | 9797 ft | 360 kts | 42° |
| 2026-04-25 18:11 | 33.11338 | 72.79401 | 9768 ft | 355 kts | 42° |
| 2026-04-25 18:12 | 33.13038 | 72.81501 | 9735 ft | 349 kts | 42° |
| 2026-04-25 18:12 | 33.14715 | 72.83573 | 9694 ft | 344 kts | 42° |
| 2026-04-25 18:12 | 33.16314 | 72.85557 | 9530 ft | 321 kts | 42° |
| 2026-04-25 18:12 | 33.17815 | 72.87420 | 9377 ft | 302 kts | 41° |
| 2026-04-25 18:13 | 33.19239 | 72.89187 | 9115 ft | 290 kts | 41° |
| 2026-04-25 18:13 | 33.20626 | 72.90902 | 8853 ft | 287 kts | 41° |
| 2026-04-25 18:13 | 33.22010 | 72.92613 | 8849 ft | 285 kts | 41° |
| 2026-04-25 18:14 | 33.24752 | 72.96007 | 8812 ft | 282 kts | 42° |
| 2026-04-25 18:14 | 33.26112 | 72.97693 | 8789 ft | 282 kts | 42° |
| 2026-04-25 18:14 | 33.27469 | 72.99377 | 8736 ft | 281 kts | 42° |
| 2026-04-25 18:14 | 33.28825 | 73.01061 | 8698 ft | 281 kts | 42° |
| 2026-04-25 18:15 | 33.30181 | 73.02747 | 8653 ft | 281 kts | 43° |
| 2026-04-25 18:15 | 33.31533 | 73.04429 | 8609 ft | 281 kts | 43° |
| 2026-04-25 18:15 | 33.32888 | 73.06114 | 8448 ft | 282 kts | 43° |
| 2026-04-25 18:15 | 33.34253 | 73.07813 | 8127 ft | 283 kts | 44° |
| 2026-04-25 18:16 | 33.35616 | 73.09513 | 7814 ft | 282 kts | 44° |
| 2026-04-25 18:16 | 33.36965 | 73.11197 | 7635 ft | 276 kts | 44° |
| 2026-04-25 18:16 | 33.39872 | 73.13717 | 7352 ft | 248 kts | 8° |
| 2026-04-25 18:17 | 33.41555 | 73.13713 | 7131 ft | 243 kts | 348° |
| 2026-04-25 18:17 | 33.43169 | 73.13124 | 6853 ft | 242 kts | 331° |
| 2026-04-25 18:17 | 33.44520 | 73.11935 | 6569 ft | 244 kts | 317° |
| 2026-04-25 18:17 | 33.45764 | 73.10530 | 6254 ft | 249 kts | 315° |
| 2026-04-25 18:18 | 33.47030 | 73.09091 | 5871 ft | 253 kts | 316° |
| 2026-04-25 18:18 | 33.48327 | 73.07637 | 5452 ft | 258 kts | 317° |
| 2026-04-25 18:18 | 33.49656 | 73.06165 | 5047 ft | 262 kts | 317° |
| 2026-04-25 18:18 | 33.50931 | 73.04616 | 4623 ft | 261 kts | 304° |
| 2026-04-25 18:19 | 33.51563 | 73.02585 | 4207 ft | 265 kts | 275° |
| 2026-04-25 18:19 | 33.51441 | 73.01030 | 3958 ft | 265 kts | 256° |
| 2026-04-25 18:19 | 33.51060 | 72.98922 | 3776 ft | 247 kts | 273° |
| 2026-04-25 18:19 | 33.51508 | 72.97063 | 3734 ft | 229 kts | 305° |
| 2026-04-25 18:20 | 33.52420 | 72.95574 | 3550 ft | 220 kts | 302° |
| 2026-04-25 18:20 | 33.52919 | 72.94109 | 3352 ft | 216 kts | 287° |
| 2026-04-25 18:20 | 33.53283 | 72.92366 | 3061 ft | 215 kts | 284° |
| 2026-04-25 18:20 | 33.53522 | 72.90652 | 2755 ft | 197 kts | 282° |
| 2026-04-25 18:21 | 33.53772 | 72.89152 | 2514 ft | 172 kts | 284° |
| 2026-04-25 18:21 | 33.53986 | 72.87831 | 2320 ft | 152 kts | 281° |
| 2026-04-25 18:21 | 33.54172 | 72.86636 | 2141 ft | 140 kts | 280° |
| 2026-04-25 18:21 | 33.54348 | 72.85511 | 1999 ft | 138 kts | 280° |
| 2026-04-25 18:22 | 33.54525 | 72.84376 | 1807 ft | 138 kts | 280° |
| 2026-04-25 18:22 | 33.54584 | 72.83999 | 1770 ft | 130 kts | 280° |
| 2026-04-25 18:22 | 33.54698 | 72.83272 | 1771 ft | 33 kts | 280° |
| 2026-04-25 18:22 | 33.54738 | 72.83010 | 1769 ft | 31 kts | 281° |
| 2026-04-25 18:23 | 33.54776 | 72.82763 | 1765 ft | 30 kts | 280° |
| 2026-04-25 18:23 | 33.54814 | 72.82525 | 1765 ft | 28 kts | 280° |
| 2026-04-25 18:23 | 33.54847 | 72.82304 | 1764 ft | 26 kts | 281° |
| 2026-04-25 18:23 | 33.54880 | 72.82097 | 1768 ft | 24 kts | 281° |
| 2026-04-25 18:24 | 33.54915 | 72.81906 | 1767 ft | 23 kts | 288° |
| 2026-04-25 18:24 | 33.54981 | 72.81739 | 1769 ft | 21 kts | 304° |
| 2026-04-25 18:24 | 33.55080 | 72.81605 | 1767 ft | 21 kts | 335° |
| 2026-04-25 18:24 | 33.55226 | 72.81608 | 1770 ft | 21 kts | 9° |
| 2026-04-25 18:25 | 33.55254 | 72.81613 | 1772 ft | 0 kts | 9° |
| 2026-04-25 18:31 | 33.55311 | 72.81646 | 1774 ft | 20 kts | 49° |
| 2026-04-25 18:31 | 33.55298 | 72.81902 | 1774 ft | 38 kts | 101° |
| 2026-04-25 18:31 | 33.55261 | 72.82146 | 1773 ft | 28 kts | 98° |
| 2026-04-25 18:31 | 33.55226 | 72.82377 | 1774 ft | 28 kts | 99° |
| 2026-04-25 18:32 | 33.55351 | 72.82515 | 1776 ft | 28 kts | 12° |
| 2026-04-25 18:32 | 33.55464 | 72.82610 | 1777 ft | 16 kts | 86° |
| 2026-04-25 18:32 | 33.55470 | 72.82740 | 1777 ft | 15 kts | 69° |
| 2026-04-25 18:32 | 33.55525 | 72.82849 | 1778 ft | 15 kts | 56° |
| 2026-04-25 18:33 | 33.55532 | 72.82901 | 1777 ft | 5 kts | 120° |
| 2026-04-25 18:33 | 33.55518 | 72.82917 | 1777 ft | 4 kts | 134° |
| 2026-04-25 18:33 | 33.55478 | 72.82959 | 1777 ft | 0 kts | 143° |
| 2026-04-25 18:33 | 33.55475 | 72.82962 | 1776 ft | 1 kts | 143° |
| 2026-04-25 18:34 | 33.55472 | 72.82964 | 1779 ft | 0 kts | 143° |
| 2026-04-25 18:34 | 33.55472 | 72.82965 | 1779 ft | 0 kts | 143° |